This is the latest recevied weather packets stored in our database for station/object OK2ILA-14. If no packets are shown the sender has not sent any weather packets the latest 10 day(s).
| Time | Temp. | Humidity | Pressure | Rain* | Wind** | Luminosity | Snow |
|---|---|---|---|---|---|---|---|
| 1777691058 | 5° C | 84% | 1024.3 hPa | - | - | - | - |
| 1777690458 | 5° C | 84% | 1024.4 hPa | - | - | - | - |
| 1777689858 | 5° C | 83% | 1024.4 hPa | - | - | - | - |
| 1777689258 | 5° C | 85% | 1024.3 hPa | - | - | - | - |
| 1777688658 | 5° C | 84% | 1024.4 hPa | - | - | - | - |
| 1777688057 | 5° C | 84% | 1024.3 hPa | - | - | - | - |
| 1777673061 | 7.78° C | 74% | 1024.6 hPa | - | - | - | - |
| 1777670652 | 7.78° C | 73% | 1024.6 hPa | - | - | - | - |
| 1777669452 | 8.33° C | 70% | 1024.6 hPa | - | - | - | - |
| 1777664051 | 8.89° C | 67% | 1024.2 hPa | - | - | - | - |
| 1777660450 | 14.44° C | 44% | 1023.5 hPa | - | - | - | - |
| 1777656249 | 21.67° C | 30% | 1022.9 hPa | - | - | - | - |
| 1777655649 | 22.78° C | 29% | 1022.9 hPa | - | - | - | - |
| 1777655049 | 23.33° C | 28% | 1022.9 hPa | - | - | - | - |
| 1777654449 | 24.44° C | 26% | 1023 hPa | - | - | - | - |
| 1777653249 | 24.44° C | 26% | 1023 hPa | - | - | - | - |
| 1777652655 | 24.44° C | 26% | 1023.1 hPa | - | - | - | - |
| 1777652049 | 26.11° C | 25% | 1023.1 hPa | - | - | - | - |
| 1777651449 | 26.67° C | 24% | 1023.1 hPa | - | - | - | - |
| 1777649647 | 27.22° C | 25% | 1023.3 hPa | - | - | - | - |
| 1777649047 | 26.67° C | 25% | 1023.4 hPa | - | - | - | - |
| 1777648447 | 25.56° C | 26% | 1023.5 hPa | - | - | - | - |
| 1777647847 | 25.56° C | 25% | 1023.6 hPa | - | - | - | - |
| 1777646046 | 26.67° C | 26% | 1023.9 hPa | - | - | - | - |
| 1777645446 | 26.67° C | 26% | 1023.9 hPa | - | - | - | - |
* Rain since midnight (hover to see other rain measurements)
** Current wind speed in m/s (hover to see current wind gust speed)